<?xml version="1.0" encoding="UTF-8" standalone="no" ?>
<gpx xmlns="http://www.topografix.com/GPX/1/1" creator="MapSource 6.15.11" version="1.1" xmlns:xsi="http://www.w3.org/2001/XMLSchema-instance" xsi:schemaLocation="http://www.topografix.com/GPX/1/1 http://www.topografix.com/GPX/1/1/gpx.xsd">

  <metadata>
    <link href="http://www.garmin.com">
      <text>Garmin International</text>
    </link>
    <time>2012-12-22T20:04:33Z</time>
    <bounds maxlat="39.9819078" maxlon="-0.5554100" minlat="39.5433900" minlon="-0.8096000"/>
  </metadata>

  <trk>
    <name>Base-Toro</name>
    <extensions>
      <gpxx:TrackExtension xmlns:gpxx="http://www.garmin.com/xmlschemas/GpxExtensions/v3">
        <gpxx:DisplayColor>Blue</gpxx:DisplayColor>
      </gpxx:TrackExtension>
    </extensions>
    <trkseg>
      <trkpt lat="39.8861830" lon="-0.7867830">
        <ele>1433.0000000</ele>
        <time>2008-12-26T11:02:15Z</time>
      </trkpt>
      <trkpt lat="39.8859330" lon="-0.7867670">
        <ele>1433.0000000</ele>
        <time>2008-12-26T11:02:18Z</time>
      </trkpt>
      <trkpt lat="39.8855000" lon="-0.7863330">
        <ele>1438.0000000</ele>
        <time>2008-12-26T11:02:25Z</time>
      </trkpt>
      <trkpt lat="39.8854500" lon="-0.7862670">
        <ele>1438.0000000</ele>
        <time>2008-12-26T11:02:26Z</time>
      </trkpt>
      <trkpt lat="39.8853330" lon="-0.7861330">
        <ele>1439.0000000</ele>
        <time>2008-12-26T11:02:29Z</time>
      </trkpt>
      <trkpt lat="39.8849500" lon="-0.7861670">
        <ele>1442.0000000</ele>
        <time>2008-12-26T11:02:36Z</time>
      </trkpt>
      <trkpt lat="39.8846170" lon="-0.7864330">
        <ele>1445.0000000</ele>
        <time>2008-12-26T11:02:40Z</time>
      </trkpt>
      <trkpt lat="39.8842500" lon="-0.7867000">
        <ele>1447.0000000</ele>
        <time>2008-12-26T11:02:46Z</time>
      </trkpt>
      <trkpt lat="39.8835000" lon="-0.7869000">
        <ele>1449.0000000</ele>
        <time>2008-12-26T11:02:56Z</time>
      </trkpt>
      <trkpt lat="39.8831830" lon="-0.7869000">
        <ele>1452.0000000</ele>
        <time>2008-12-26T11:03:01Z</time>
      </trkpt>
      <trkpt lat="39.8828830" lon="-0.7873170">
        <ele>1455.0000000</ele>
        <time>2008-12-26T11:03:08Z</time>
      </trkpt>
      <trkpt lat="39.8827670" lon="-0.7876830">
        <ele>1456.0000000</ele>
        <time>2008-12-26T11:03:11Z</time>
      </trkpt>
      <trkpt lat="39.8826830" lon="-0.7878830">
        <ele>1457.0000000</ele>
        <time>2008-12-26T11:03:13Z</time>
      </trkpt>
      <trkpt lat="39.8826000" lon="-0.7881330">
        <ele>1457.0000000</ele>
        <time>2008-12-26T11:03:16Z</time>
      </trkpt>
      <trkpt lat="39.8824670" lon="-0.7885830">
        <ele>1461.0000000</ele>
        <time>2008-12-26T11:03:22Z</time>
      </trkpt>
      <trkpt lat="39.8824330" lon="-0.7887170">
        <ele>1461.0000000</ele>
        <time>2008-12-26T11:03:23Z</time>
      </trkpt>
      <trkpt lat="39.8824330" lon="-0.7889000">
        <ele>1461.0000000</ele>
        <time>2008-12-26T11:03:25Z</time>
      </trkpt>
      <trkpt lat="39.8825170" lon="-0.7892170">
        <ele>1462.0000000</ele>
        <time>2008-12-26T11:03:31Z</time>
      </trkpt>
      <trkpt lat="39.8829170" lon="-0.7896500">
        <ele>1465.0000000</ele>
        <time>2008-12-26T11:03:38Z</time>
      </trkpt>
      <trkpt lat="39.8830330" lon="-0.7901830">
        <ele>1468.0000000</ele>
        <time>2008-12-26T11:03:44Z</time>
      </trkpt>
      <trkpt lat="39.8828830" lon="-0.7907000">
        <ele>1472.0000000</ele>
        <time>2008-12-26T11:03:49Z</time>
      </trkpt>
      <trkpt lat="39.8827830" lon="-0.7910000">
        <ele>1475.0000000</ele>
        <time>2008-12-26T11:03:53Z</time>
      </trkpt>
      <trkpt lat="39.8827500" lon="-0.7910500">
        <ele>1476.0000000</ele>
        <time>2008-12-26T11:03:54Z</time>
      </trkpt>
      <trkpt lat="39.8825500" lon="-0.7913000">
        <ele>1477.0000000</ele>
        <time>2008-12-26T11:03:58Z</time>
      </trkpt>
      <trkpt lat="39.8824330" lon="-0.7914500">
        <ele>1482.0000000</ele>
        <time>2008-12-26T11:04:00Z</time>
      </trkpt>
      <trkpt lat="39.8823170" lon="-0.7916000">
        <ele>1484.0000000</ele>
        <time>2008-12-26T11:04:02Z</time>
      </trkpt>
      <trkpt lat="39.8820670" lon="-0.7917330">
        <ele>1488.0000000</ele>
        <time>2008-12-26T11:04:06Z</time>
      </trkpt>
      <trkpt lat="39.8820500" lon="-0.7917670">
        <ele>1488.0000000</ele>
        <time>2008-12-26T11:04:07Z</time>
      </trkpt>
      <trkpt lat="39.8818000" lon="-0.7921500">
        <ele>1494.0000000</ele>
        <time>2008-12-26T11:04:13Z</time>
      </trkpt>
      <trkpt lat="39.8818000" lon="-0.7924330">
        <ele>1495.0000000</ele>
        <time>2008-12-26T11:04:20Z</time>
      </trkpt>
      <trkpt lat="39.8819670" lon="-0.7924670">
        <ele>1496.0000000</ele>
        <time>2008-12-26T11:04:23Z</time>
      </trkpt>
      <trkpt lat="39.8821330" lon="-0.7926170">
        <ele>1501.0000000</ele>
        <time>2008-12-26T11:04:27Z</time>
      </trkpt>
      <trkpt lat="39.8820830" lon="-0.7930830">
        <ele>1504.0000000</ele>
        <time>2008-12-26T11:04:33Z</time>
      </trkpt>
      <trkpt lat="39.8819830" lon="-0.7933170">
        <ele>1505.0000000</ele>
        <time>2008-12-26T11:04:35Z</time>
      </trkpt>
      <trkpt lat="39.8818670" lon="-0.7936500">
        <ele>1506.0000000</ele>
        <time>2008-12-26T11:04:38Z</time>
      </trkpt>
      <trkpt lat="39.8817830" lon="-0.7939170">
        <ele>1507.0000000</ele>
        <time>2008-12-26T11:04:41Z</time>
      </trkpt>
      <trkpt lat="39.8817170" lon="-0.7942830">
        <ele>1507.0000000</ele>
        <time>2008-12-26T11:04:45Z</time>
      </trkpt>
      <trkpt lat="39.8813830" lon="-0.7946830">
        <ele>1507.0000000</ele>
        <time>2008-12-26T11:04:51Z</time>
      </trkpt>
      <trkpt lat="39.8813500" lon="-0.7947500">
        <ele>1503.0000000</ele>
        <time>2008-12-26T11:04:57Z</time>
      </trkpt>
      <trkpt lat="39.8813500" lon="-0.7956670">
        <ele>1502.0000000</ele>
        <time>2008-12-26T11:05:00Z</time>
      </trkpt>
      <trkpt lat="39.8815000" lon="-0.7963000">
        <ele>1504.0000000</ele>
        <time>2008-12-26T11:05:07Z</time>
      </trkpt>
      <trkpt lat="39.8814500" lon="-0.7966170">
        <ele>1503.0000000</ele>
        <time>2008-12-26T11:05:12Z</time>
      </trkpt>
      <trkpt lat="39.8812830" lon="-0.7969330">
        <ele>1502.0000000</ele>
        <time>2008-12-26T11:05:16Z</time>
      </trkpt>
      <trkpt lat="39.8813330" lon="-0.7973000">
        <ele>1501.0000000</ele>
        <time>2008-12-26T11:05:21Z</time>
      </trkpt>
      <trkpt lat="39.8815830" lon="-0.7978170">
        <ele>1496.0000000</ele>
        <time>2008-12-26T11:05:28Z</time>
      </trkpt>
      <trkpt lat="39.8816000" lon="-0.7978830">
        <ele>1497.0000000</ele>
        <time>2008-12-26T11:05:29Z</time>
      </trkpt>
      <trkpt lat="39.8816170" lon="-0.7981170">
        <ele>1495.0000000</ele>
        <time>2008-12-26T11:05:33Z</time>
      </trkpt>
      <trkpt lat="39.8815330" lon="-0.7983000">
        <ele>1495.0000000</ele>
        <time>2008-12-26T11:05:37Z</time>
      </trkpt>
      <trkpt lat="39.8812670" lon="-0.7986830">
        <ele>1492.0000000</ele>
        <time>2008-12-26T11:05:42Z</time>
      </trkpt>
      <trkpt lat="39.8811330" lon="-0.7989330">
        <ele>1490.0000000</ele>
        <time>2008-12-26T11:05:46Z</time>
      </trkpt>
      <trkpt lat="39.8809670" lon="-0.7990830">
        <ele>1488.0000000</ele>
        <time>2008-12-26T11:05:51Z</time>
      </trkpt>
      <trkpt lat="39.8809330" lon="-0.7991670">
        <ele>1487.0000000</ele>
        <time>2008-12-26T11:05:53Z</time>
      </trkpt>
      <trkpt lat="39.8809500" lon="-0.7992830">
        <ele>1485.0000000</ele>
        <time>2008-12-26T11:05:55Z</time>
      </trkpt>
      <trkpt lat="39.8810170" lon="-0.7996500">
        <ele>1482.0000000</ele>
        <time>2008-12-26T11:06:00Z</time>
      </trkpt>
      <trkpt lat="39.8810670" lon="-0.7999830">
        <ele>1482.0000000</ele>
        <time>2008-12-26T11:06:05Z</time>
      </trkpt>
      <trkpt lat="39.8811170" lon="-0.8008830">
        <ele>1478.0000000</ele>
        <time>2008-12-26T11:06:13Z</time>
      </trkpt>
      <trkpt lat="39.8811170" lon="-0.8009670">
        <ele>1478.0000000</ele>
        <time>2008-12-26T11:06:14Z</time>
      </trkpt>
      <trkpt lat="39.8809330" lon="-0.8014170">
        <ele>1479.0000000</ele>
        <time>2008-12-26T11:06:19Z</time>
      </trkpt>
      <trkpt lat="39.8808830" lon="-0.8015000">
        <ele>1479.0000000</ele>
        <time>2008-12-26T11:06:20Z</time>
      </trkpt>
      <trkpt lat="39.8802830" lon="-0.8024000">
        <ele>1476.0000000</ele>
        <time>2008-12-26T11:06:30Z</time>
      </trkpt>
      <trkpt lat="39.8802330" lon="-0.8025000">
        <ele>1476.0000000</ele>
        <time>2008-12-26T11:06:31Z</time>
      </trkpt>
      <trkpt lat="39.8800830" lon="-0.8027330">
        <ele>1473.0000000</ele>
        <time>2008-12-26T11:06:34Z</time>
      </trkpt>
      <trkpt lat="39.8800330" lon="-0.8028000">
        <ele>1473.0000000</ele>
        <time>2008-12-26T11:06:35Z</time>
      </trkpt>
      <trkpt lat="39.8799670" lon="-0.8031330">
        <ele>1473.0000000</ele>
        <time>2008-12-26T11:06:40Z</time>
      </trkpt>
      <trkpt lat="39.8800170" lon="-0.8036000">
        <ele>1472.0000000</ele>
        <time>2008-12-26T11:06:45Z</time>
      </trkpt>
      <trkpt lat="39.8799330" lon="-0.8038000">
        <ele>1472.0000000</ele>
        <time>2008-12-26T11:06:49Z</time>
      </trkpt>
      <trkpt lat="39.8798170" lon="-0.8041000">
        <ele>1475.0000000</ele>
        <time>2008-12-26T11:06:55Z</time>
      </trkpt>
      <trkpt lat="39.8798330" lon="-0.8048170">
        <ele>1477.0000000</ele>
        <time>2008-12-26T11:07:05Z</time>
      </trkpt>
      <trkpt lat="39.8798500" lon="-0.8050830">
        <ele>1481.0000000</ele>
        <time>2008-12-26T11:07:09Z</time>
      </trkpt>
      <trkpt lat="39.8798500" lon="-0.8051330">
        <ele>1481.0000000</ele>
        <time>2008-12-26T11:07:10Z</time>
      </trkpt>
      <trkpt lat="39.8798670" lon="-0.8052000">
        <ele>1482.0000000</ele>
        <time>2008-12-26T11:07:11Z</time>
      </trkpt>
      <trkpt lat="39.8799830" lon="-0.8054170">
        <ele>1485.0000000</ele>
        <time>2008-12-26T11:07:15Z</time>
      </trkpt>
      <trkpt lat="39.8800500" lon="-0.8054500">
        <ele>1485.0000000</ele>
        <time>2008-12-26T11:07:16Z</time>
      </trkpt>
      <trkpt lat="39.8802830" lon="-0.8056830">
        <ele>1487.0000000</ele>
        <time>2008-12-26T11:07:22Z</time>
      </trkpt>
      <trkpt lat="39.8803500" lon="-0.8058000">
        <ele>1489.0000000</ele>
        <time>2008-12-26T11:07:24Z</time>
      </trkpt>
      <trkpt lat="39.8804170" lon="-0.8059830">
        <ele>1490.0000000</ele>
        <time>2008-12-26T11:07:27Z</time>
      </trkpt>
      <trkpt lat="39.8805670" lon="-0.8064830">
        <ele>1494.0000000</ele>
        <time>2008-12-26T11:07:33Z</time>
      </trkpt>
      <trkpt lat="39.8805830" lon="-0.8065330">
        <ele>1494.0000000</ele>
        <time>2008-12-26T11:07:34Z</time>
      </trkpt>
      <trkpt lat="39.8806000" lon="-0.8066000">
        <ele>1495.0000000</ele>
        <time>2008-12-26T11:07:35Z</time>
      </trkpt>
      <trkpt lat="39.8806670" lon="-0.8067330">
        <ele>1496.0000000</ele>
        <time>2008-12-26T11:07:37Z</time>
      </trkpt>
      <trkpt lat="39.8807170" lon="-0.8069000">
        <ele>1497.0000000</ele>
        <time>2008-12-26T11:07:39Z</time>
      </trkpt>
      <trkpt lat="39.8808670" lon="-0.8072500">
        <ele>1501.0000000</ele>
        <time>2008-12-26T11:07:44Z</time>
      </trkpt>
      <trkpt lat="39.8811670" lon="-0.8072670">
        <ele>1502.0000000</ele>
        <time>2008-12-26T11:07:51Z</time>
      </trkpt>
      <trkpt lat="39.8812330" lon="-0.8071830">
        <ele>1504.0000000</ele>
        <time>2008-12-26T11:07:52Z</time>
      </trkpt>
      <trkpt lat="39.8813500" lon="-0.8070500">
        <ele>1505.0000000</ele>
        <time>2008-12-26T11:07:54Z</time>
      </trkpt>
      <trkpt lat="39.8817830" lon="-0.8065830">
        <ele>1506.0000000</ele>
        <time>2008-12-26T11:08:01Z</time>
      </trkpt>
      <trkpt lat="39.8819500" lon="-0.8063830">
        <ele>1508.0000000</ele>
        <time>2008-12-26T11:08:04Z</time>
      </trkpt>
      <trkpt lat="39.8821830" lon="-0.8061330">
        <ele>1511.0000000</ele>
        <time>2008-12-26T11:08:08Z</time>
      </trkpt>
      <trkpt lat="39.8823830" lon="-0.8059830">
        <ele>1515.0000000</ele>
        <time>2008-12-26T11:08:11Z</time>
      </trkpt>
      <trkpt lat="39.8826670" lon="-0.8057830">
        <ele>1519.0000000</ele>
        <time>2008-12-26T11:08:15Z</time>
      </trkpt>
      <trkpt lat="39.8828670" lon="-0.8056500">
        <ele>1522.0000000</ele>
        <time>2008-12-26T11:08:18Z</time>
      </trkpt>
      <trkpt lat="39.8832000" lon="-0.8053830">
        <ele>1525.0000000</ele>
        <time>2008-12-26T11:08:25Z</time>
      </trkpt>
      <trkpt lat="39.8834500" lon="-0.8051670">
        <ele>1530.0000000</ele>
        <time>2008-12-26T11:08:29Z</time>
      </trkpt>
      <trkpt lat="39.8835170" lon="-0.8051170">
        <ele>1529.0000000</ele>
        <time>2008-12-26T11:08:30Z</time>
      </trkpt>
      <trkpt lat="39.8835670" lon="-0.8050670">
        <ele>1532.0000000</ele>
        <time>2008-12-26T11:08:31Z</time>
      </trkpt>
      <trkpt lat="39.8837670" lon="-0.8048830">
        <ele>1537.0000000</ele>
        <time>2008-12-26T11:08:35Z</time>
      </trkpt>
      <trkpt lat="39.8838670" lon="-0.8048000">
        <ele>1539.0000000</ele>
        <time>2008-12-26T11:08:37Z</time>
      </trkpt>
      <trkpt lat="39.8839500" lon="-0.8047500">
        <ele>1541.0000000</ele>
        <time>2008-12-26T11:08:39Z</time>
      </trkpt>
      <trkpt lat="39.8841000" lon="-0.8046670">
        <ele>1544.0000000</ele>
        <time>2008-12-26T11:08:42Z</time>
      </trkpt>
      <trkpt lat="39.8842330" lon="-0.8046000">
        <ele>1547.0000000</ele>
        <time>2008-12-26T11:08:45Z</time>
      </trkpt>
      <trkpt lat="39.8842830" lon="-0.8045670">
        <ele>1548.0000000</ele>
        <time>2008-12-26T11:08:46Z</time>
      </trkpt>
      <trkpt lat="39.8844670" lon="-0.8044500">
        <ele>1551.0000000</ele>
        <time>2008-12-26T11:08:49Z</time>
      </trkpt>
      <trkpt lat="39.8845670" lon="-0.8043830">
        <ele>1553.0000000</ele>
        <time>2008-12-26T11:08:51Z</time>
      </trkpt>
      <trkpt lat="39.8847500" lon="-0.8042670">
        <ele>1556.0000000</ele>
        <time>2008-12-26T11:08:54Z</time>
      </trkpt>
      <trkpt lat="39.8853330" lon="-0.8039330">
        <ele>1557.0000000</ele>
        <time>2008-12-26T11:09:02Z</time>
      </trkpt>
      <trkpt lat="39.8860170" lon="-0.8036330">
        <ele>1556.0000000</ele>
        <time>2008-12-26T11:09:11Z</time>
      </trkpt>
      <trkpt lat="39.8862670" lon="-0.8034330">
        <ele>1554.0000000</ele>
        <time>2008-12-26T11:09:14Z</time>
      </trkpt>
      <trkpt lat="39.8868670" lon="-0.8028170">
        <ele>1549.0000000</ele>
        <time>2008-12-26T11:09:22Z</time>
      </trkpt>
      <trkpt lat="39.8870830" lon="-0.8026170">
        <ele>1554.0000000</ele>
        <time>2008-12-26T11:09:25Z</time>
      </trkpt>
      <trkpt lat="39.8873170" lon="-0.8023830">
        <ele>1550.0000000</ele>
        <time>2008-12-26T11:09:29Z</time>
      </trkpt>
      <trkpt lat="39.8873670" lon="-0.8023500">
        <ele>1553.0000000</ele>
        <time>2008-12-26T11:09:30Z</time>
      </trkpt>
      <trkpt lat="39.8875000" lon="-0.8023500">
        <ele>1554.0000000</ele>
        <time>2008-12-26T11:09:33Z</time>
      </trkpt>
      <trkpt lat="39.8876170" lon="-0.8024330">
        <ele>1554.0000000</ele>
        <time>2008-12-26T11:09:35Z</time>
      </trkpt>
      <trkpt lat="39.8877670" lon="-0.8025500">
        <ele>1553.0000000</ele>
        <time>2008-12-26T11:09:37Z</time>
      </trkpt>
      <trkpt lat="39.8885500" lon="-0.8028000">
        <ele>1556.0000000</ele>
        <time>2008-12-26T11:09:46Z</time>
      </trkpt>
      <trkpt lat="39.8887330" lon="-0.8028330">
        <ele>1557.0000000</ele>
        <time>2008-12-26T11:09:48Z</time>
      </trkpt>
      <trkpt lat="39.8888330" lon="-0.8028670">
        <ele>1558.0000000</ele>
        <time>2008-12-26T11:09:49Z</time>
      </trkpt>
      <trkpt lat="39.8895830" lon="-0.8032330">
        <ele>1562.0000000</ele>
        <time>2008-12-26T11:09:59Z</time>
      </trkpt>
      <trkpt lat="39.8898330" lon="-0.8033830">
        <ele>1564.0000000</ele>
        <time>2008-12-26T11:10:02Z</time>
      </trkpt>
      <trkpt lat="39.8906000" lon="-0.8037830">
        <ele>1568.0000000</ele>
        <time>2008-12-26T11:10:10Z</time>
      </trkpt>
      <trkpt lat="39.8910500" lon="-0.8040330">
        <ele>1570.0000000</ele>
        <time>2008-12-26T11:10:15Z</time>
      </trkpt>
      <trkpt lat="39.8913670" lon="-0.8042000">
        <ele>1574.0000000</ele>
        <time>2008-12-26T11:10:19Z</time>
      </trkpt>
      <trkpt lat="39.8918830" lon="-0.8045330">
        <ele>1577.0000000</ele>
        <time>2008-12-26T11:10:25Z</time>
      </trkpt>
      <trkpt lat="39.8920670" lon="-0.8046500">
        <ele>1579.0000000</ele>
        <time>2008-12-26T11:10:28Z</time>
      </trkpt>
      <trkpt lat="39.8924330" lon="-0.8046000">
        <ele>1580.0000000</ele>
        <time>2008-12-26T11:10:33Z</time>
      </trkpt>
      <trkpt lat="39.8930330" lon="-0.8042830">
        <ele>1578.0000000</ele>
        <time>2008-12-26T11:10:40Z</time>
      </trkpt>
      <trkpt lat="39.8932830" lon="-0.8044000">
        <ele>1575.0000000</ele>
        <time>2008-12-26T11:10:46Z</time>
      </trkpt>
      <trkpt lat="39.8935170" lon="-0.8047830">
        <ele>1570.0000000</ele>
        <time>2008-12-26T11:10:52Z</time>
      </trkpt>
      <trkpt lat="39.8936670" lon="-0.8050500">
        <ele>1567.0000000</ele>
        <time>2008-12-26T11:10:56Z</time>
      </trkpt>
      <trkpt lat="39.8938500" lon="-0.8054170">
        <ele>1566.0000000</ele>
        <time>2008-12-26T11:11:00Z</time>
      </trkpt>
      <trkpt lat="39.8940670" lon="-0.8057330">
        <ele>1562.0000000</ele>
        <time>2008-12-26T11:11:03Z</time>
      </trkpt>
      <trkpt lat="39.8941330" lon="-0.8058500">
        <ele>1562.0000000</ele>
        <time>2008-12-26T11:11:04Z</time>
      </trkpt>
      <trkpt lat="39.8943670" lon="-0.8061670">
        <ele>1560.0000000</ele>
        <time>2008-12-26T11:11:07Z</time>
      </trkpt>
      <trkpt lat="39.8946500" lon="-0.8066330">
        <ele>1557.0000000</ele>
        <time>2008-12-26T11:11:11Z</time>
      </trkpt>
      <trkpt lat="39.8949170" lon="-0.8070830">
        <ele>1554.0000000</ele>
        <time>2008-12-26T11:11:15Z</time>
      </trkpt>
      <trkpt lat="39.8949830" lon="-0.8072000">
        <ele>1553.0000000</ele>
        <time>2008-12-26T11:11:16Z</time>
      </trkpt>
      <trkpt lat="39.8954830" lon="-0.8074170">
        <ele>1552.0000000</ele>
        <time>2008-12-26T11:11:18Z</time>
      </trkpt>
      <trkpt lat="39.8955170" lon="-0.8074000">
        <ele>1547.0000000</ele>
        <time>2008-12-26T11:11:21Z</time>
      </trkpt>
      <trkpt lat="39.8958000" lon="-0.8073830">
        <ele>1546.0000000</ele>
        <time>2008-12-26T11:11:23Z</time>
      </trkpt>
      <trkpt lat="39.8960670" lon="-0.8073670">
        <ele>1544.0000000</ele>
        <time>2008-12-26T11:11:25Z</time>
      </trkpt>
      <trkpt lat="39.8969000" lon="-0.8069170">
        <ele>1539.0000000</ele>
        <time>2008-12-26T11:11:32Z</time>
      </trkpt>
      <trkpt lat="39.8970170" lon="-0.8068500">
        <ele>1539.0000000</ele>
        <time>2008-12-26T11:11:33Z</time>
      </trkpt>
      <trkpt lat="39.8975000" lon="-0.8065500">
        <ele>1535.0000000</ele>
        <time>2008-12-26T11:11:37Z</time>
      </trkpt>
      <trkpt lat="39.8977330" lon="-0.8064000">
        <ele>1532.0000000</ele>
        <time>2008-12-26T11:11:39Z</time>
      </trkpt>
      <trkpt lat="39.8980670" lon="-0.8062500">
        <ele>1528.0000000</ele>
        <time>2008-12-26T11:11:42Z</time>
      </trkpt>
      <trkpt lat="39.8982830" lon="-0.8062500">
        <ele>1525.0000000</ele>
        <time>2008-12-26T11:11:44Z</time>
      </trkpt>
      <trkpt lat="39.8986830" lon="-0.8066170">
        <ele>1521.0000000</ele>
        <time>2008-12-26T11:11:48Z</time>
      </trkpt>
      <trkpt lat="39.8987670" lon="-0.8067500">
        <ele>1520.0000000</ele>
        <time>2008-12-26T11:11:49Z</time>
      </trkpt>
      <trkpt lat="39.8991000" lon="-0.8071330">
        <ele>1515.0000000</ele>
        <time>2008-12-26T11:11:53Z</time>
      </trkpt>
      <trkpt lat="39.8992170" lon="-0.8072000">
        <ele>1514.0000000</ele>
        <time>2008-12-26T11:11:54Z</time>
      </trkpt>
      <trkpt lat="39.8994000" lon="-0.8073170">
        <ele>1512.0000000</ele>
        <time>2008-12-26T11:11:56Z</time>
      </trkpt>
      <trkpt lat="39.8996330" lon="-0.8076170">
        <ele>1507.0000000</ele>
        <time>2008-12-26T11:11:59Z</time>
      </trkpt>
      <trkpt lat="39.8996000" lon="-0.8082000">
        <ele>1504.0000000</ele>
        <time>2008-12-26T11:12:03Z</time>
      </trkpt>
      <trkpt lat="39.8995500" lon="-0.8086330">
        <ele>1499.0000000</ele>
        <time>2008-12-26T11:12:06Z</time>
      </trkpt>
      <trkpt lat="39.8996000" lon="-0.8088330">
        <ele>1498.0000000</ele>
        <time>2008-12-26T11:12:08Z</time>
      </trkpt>
      <trkpt lat="39.9000170" lon="-0.8087500">
        <ele>1498.0000000</ele>
        <time>2008-12-26T11:12:13Z</time>
      </trkpt>
      <trkpt lat="39.9001330" lon="-0.8086670">
        <ele>1498.0000000</ele>
        <time>2008-12-26T11:12:14Z</time>
      </trkpt>
      <trkpt lat="39.9006170" lon="-0.8084000">
        <ele>1495.0000000</ele>
        <time>2008-12-26T11:12:18Z</time>
      </trkpt>
      <trkpt lat="39.9010000" lon="-0.8084170">
        <ele>1493.0000000</ele>
        <time>2008-12-26T11:12:21Z</time>
      </trkpt>
      <trkpt lat="39.9011500" lon="-0.8084330">
        <ele>1494.0000000</ele>
        <time>2008-12-26T11:12:22Z</time>
      </trkpt>
      <trkpt lat="39.9023670" lon="-0.8087500">
        <ele>1491.0000000</ele>
        <time>2008-12-26T11:12:31Z</time>
      </trkpt>
      <trkpt lat="39.9031170" lon="-0.8086830">
        <ele>1487.0000000</ele>
        <time>2008-12-26T11:12:38Z</time>
      </trkpt>
      <trkpt lat="39.9032670" lon="-0.8086670">
        <ele>1487.0000000</ele>
        <time>2008-12-26T11:12:40Z</time>
      </trkpt>
      <trkpt lat="39.9034670" lon="-0.8091000">
        <ele>1487.0000000</ele>
        <time>2008-12-26T11:12:45Z</time>
      </trkpt>
      <trkpt lat="39.9034670" lon="-0.8093670">
        <ele>1487.0000000</ele>
        <time>2008-12-26T11:12:47Z</time>
      </trkpt>
      <trkpt lat="39.9035500" lon="-0.8096000">
        <ele>1483.0000000</ele>
        <time>2008-12-26T11:12:50Z</time>
      </trkpt>
      <trkpt lat="39.9036170" lon="-0.8096000">
        <ele>1483.0000000</ele>
        <time>2008-12-26T11:12:51Z</time>
      </trkpt>
      <trkpt lat="39.9038500" lon="-0.8093830">
        <ele>1483.0000000</ele>
        <time>2008-12-26T11:12:55Z</time>
      </trkpt>
      <trkpt lat="39.9041830" lon="-0.8089670">
        <ele>1479.0000000</ele>
        <time>2008-12-26T11:12:59Z</time>
      </trkpt>
      <trkpt lat="39.9045170" lon="-0.8085500">
        <ele>1476.0000000</ele>
        <time>2008-12-26T11:13:03Z</time>
      </trkpt>
      <trkpt lat="39.9048000" lon="-0.8083170">
        <ele>1476.0000000</ele>
        <time>2008-12-26T11:13:06Z</time>
      </trkpt>
      <trkpt lat="39.9052330" lon="-0.8078830">
        <ele>1477.0000000</ele>
        <time>2008-12-26T11:13:11Z</time>
      </trkpt>
      <trkpt lat="39.9056500" lon="-0.8076330">
        <ele>1479.0000000</ele>
        <time>2008-12-26T11:13:15Z</time>
      </trkpt>
      <trkpt lat="39.9064670" lon="-0.8073830">
        <ele>1482.0000000</ele>
        <time>2008-12-26T11:13:23Z</time>
      </trkpt>
      <trkpt lat="39.9067830" lon="-0.8074000">
        <ele>1480.0000000</ele>
        <time>2008-12-26T11:13:26Z</time>
      </trkpt>
      <trkpt lat="39.9071000" lon="-0.8075670">
        <ele>1479.0000000</ele>
        <time>2008-12-26T11:13:29Z</time>
      </trkpt>
      <trkpt lat="39.9075000" lon="-0.8078330">
        <ele>1474.0000000</ele>
        <time>2008-12-26T11:13:33Z</time>
      </trkpt>
      <trkpt lat="39.9078830" lon="-0.8080670">
        <ele>1472.0000000</ele>
        <time>2008-12-26T11:13:37Z</time>
      </trkpt>
      <trkpt lat="39.9081670" lon="-0.8083000">
        <ele>1466.0000000</ele>
        <time>2008-12-26T11:13:40Z</time>
      </trkpt>
      <trkpt lat="39.9083170" lon="-0.8085500">
        <ele>1463.0000000</ele>
        <time>2008-12-26T11:13:42Z</time>
      </trkpt>
      <trkpt lat="39.9084330" lon="-0.8087670">
        <ele>1460.0000000</ele>
        <time>2008-12-26T11:13:44Z</time>
      </trkpt>
      <trkpt lat="39.9088330" lon="-0.8087330">
        <ele>1457.0000000</ele>
        <time>2008-12-26T11:13:49Z</time>
      </trkpt>
      <trkpt lat="39.9093500" lon="-0.8086000">
        <ele>1459.0000000</ele>
        <time>2008-12-26T11:13:53Z</time>
      </trkpt>
      <trkpt lat="39.9097000" lon="-0.8085330">
        <ele>1458.0000000</ele>
        <time>2008-12-26T11:13:56Z</time>
      </trkpt>
      <trkpt lat="39.9099170" lon="-0.8085500">
        <ele>1457.0000000</ele>
        <time>2008-12-26T11:13:58Z</time>
      </trkpt>
      <trkpt lat="39.9102330" lon="-0.8086670">
        <ele>1457.0000000</ele>
        <time>2008-12-26T11:14:01Z</time>
      </trkpt>
      <trkpt lat="39.9106330" lon="-0.8089000">
        <ele>1456.0000000</ele>
        <time>2008-12-26T11:14:06Z</time>
      </trkpt>
      <trkpt lat="39.9107170" lon="-0.8092330">
        <ele>1456.0000000</ele>
        <time>2008-12-26T11:14:10Z</time>
      </trkpt>
      <trkpt lat="39.9108706" lon="-0.8089577"/>
      <trkpt lat="39.9124516" lon="-0.8078455"/>
      <trkpt lat="39.9140685" lon="-0.8072893"/>
      <trkpt lat="39.9136553" lon="-0.8059824"/>
      <trkpt lat="39.9143919" lon="-0.8054820"/>
      <trkpt lat="39.9154879" lon="-0.8058156"/>
      <trkpt lat="39.9164401" lon="-0.8046477"/>
      <trkpt lat="39.9165658" lon="-0.8039526"/>
      <trkpt lat="39.9175720" lon="-0.8018671"/>
      <trkpt lat="39.9174462" lon="-0.8012275"/>
      <trkpt lat="39.9181319" lon="-0.7999875"/>
      <trkpt lat="39.9195512" lon="-0.8008495"/>
      <trkpt lat="39.9194434" lon="-0.8026569"/>
      <trkpt lat="39.9214377" lon="-0.8006549"/>
      <trkpt lat="39.9232164" lon="-0.8010163"/>
      <trkpt lat="39.9235577" lon="-0.8019340"/>
      <trkpt lat="39.9227492" lon="-0.8031574"/>
      <trkpt lat="39.9232703" lon="-0.8035467"/>
      <trkpt lat="39.9249950" lon="-0.8025179"/>
      <trkpt lat="39.9258933" lon="-0.8016281"/>
      <trkpt lat="39.9263065" lon="-0.8000709"/>
      <trkpt lat="39.9273845" lon="-0.8003490"/>
      <trkpt lat="39.9285150" lon="-0.7996543"/>
      <trkpt lat="39.9298983" lon="-0.8001269"/>
      <trkpt lat="39.9309944" lon="-0.7995709"/>
      <trkpt lat="39.9324316" lon="-0.8003216"/>
      <trkpt lat="39.9312099" lon="-0.7987366"/>
      <trkpt lat="39.9300780" lon="-0.7987644"/>
      <trkpt lat="39.9304913" lon="-0.7980137"/>
      <trkpt lat="39.9320184" lon="-0.7969292"/>
      <trkpt lat="39.9323598" lon="-0.7962063"/>
      <trkpt lat="39.9340127" lon="-0.7961785"/>
      <trkpt lat="39.9344618" lon="-0.7953443"/>
      <trkpt lat="39.9364561" lon="-0.7946214"/>
      <trkpt lat="39.9368334" lon="-0.7936481"/>
      <trkpt lat="39.9384143" lon="-0.7923970"/>
      <trkpt lat="39.9408756" lon="-0.7917297"/>
      <trkpt lat="39.9413427" lon="-0.7908121"/>
      <trkpt lat="39.9435347" lon="-0.7903115"/>
      <trkpt lat="39.9439120" lon="-0.7890047"/>
      <trkpt lat="39.9449900" lon="-0.7879480"/>
      <trkpt lat="39.9457266" lon="-0.7877812"/>
      <trkpt lat="39.9470740" lon="-0.7865577"/>
      <trkpt lat="39.9506130" lon="-0.7855018"/>
      <trkpt lat="39.9511879" lon="-0.7845285"/>
      <trkpt lat="39.9511700" lon="-0.7843339"/>
      <trkpt lat="39.9511520" lon="-0.7841393"/>
      <trkpt lat="39.9511341" lon="-0.7840002"/>
      <trkpt lat="39.9511341" lon="-0.7838334"/>
      <trkpt lat="39.9511341" lon="-0.7836665"/>
      <trkpt lat="39.9511700" lon="-0.7835553"/>
      <trkpt lat="39.9511879" lon="-0.7834719"/>
      <trkpt lat="39.9511879" lon="-0.7834719"/>
      <trkpt lat="39.9523198" lon="-0.7831939"/>
      <trkpt lat="39.9529666" lon="-0.7801073"/>
      <trkpt lat="39.9546914" lon="-0.7783556"/>
      <trkpt lat="39.9549429" lon="-0.7768262"/>
      <trkpt lat="39.9555358" lon="-0.7749632"/>
      <trkpt lat="39.9564701" lon="-0.7739066"/>
      <trkpt lat="39.9567216" lon="-0.7732674"/>
      <trkpt lat="39.9584463" lon="-0.7724611"/>
      <trkpt lat="39.9596680" lon="-0.7712099"/>
      <trkpt lat="39.9617880" lon="-0.7704313"/>
      <trkpt lat="39.9627942" lon="-0.7697361"/>
      <trkpt lat="39.9650400" lon="-0.7701532"/>
      <trkpt lat="39.9658485" lon="-0.7709874"/>
      <trkpt lat="39.9669803" lon="-0.7689297"/>
      <trkpt lat="39.9676786" lon="-0.7669394"/>
      <trkpt lat="39.9713257" lon="-0.7632134"/>
      <trkpt lat="39.9727450" lon="-0.7628241"/>
      <trkpt lat="39.9752065" lon="-0.7606274"/>
      <trkpt lat="39.9767695" lon="-0.7599322"/>
      <trkpt lat="39.9781708" lon="-0.7589311"/>
      <trkpt lat="39.9799136" lon="-0.7565954"/>
      <trkpt lat="39.9815126" lon="-0.7533143"/>
      <trkpt lat="39.9817102" lon="-0.7518128"/>
      <trkpt lat="39.9819078" lon="-0.7514791"/>
      <trkpt lat="39.9817102" lon="-0.7496995"/>
      <trkpt lat="39.9818539" lon="-0.7486707"/>
      <trkpt lat="39.9816563" lon="-0.7478087"/>
      <trkpt lat="39.9815305" lon="-0.7464739"/>
      <trkpt lat="39.9810455" lon="-0.7458344"/>
      <trkpt lat="39.9796620" lon="-0.7448334"/>
    </trkseg>
  </trk>

  <trk>
    <name>Bejis-Toro</name>
    <extensions>
      <gpxx:TrackExtension xmlns:gpxx="http://www.garmin.com/xmlschemas/GpxExtensions/v3">
        <gpxx:DisplayColor>White</gpxx:DisplayColor>
      </gpxx:TrackExtension>
    </extensions>
    <trkseg>
      <trkpt lat="39.9166525" lon="-0.7208415">
        <ele>791.1953125</ele>
      </trkpt>
      <trkpt lat="39.9173490" lon="-0.7218174">
        <ele>791.5859375</ele>
      </trkpt>
      <trkpt lat="39.9174389" lon="-0.7229689">
        <ele>789.2734375</ele>
      </trkpt>
      <trkpt lat="39.9167202" lon="-0.7241751">
        <ele>815.2656250</ele>
      </trkpt>
      <trkpt lat="39.9170346" lon="-0.7240655">
        <ele>795.7343750</ele>
      </trkpt>
      <trkpt lat="39.9170346" lon="-0.7279037">
        <ele>798.0976563</ele>
      </trkpt>
      <trkpt lat="39.9172143" lon="-0.7280134">
        <ele>796.4492188</ele>
      </trkpt>
      <trkpt lat="39.9177533" lon="-0.7297132">
        <ele>790.4648438</ele>
      </trkpt>
      <trkpt lat="39.9186965" lon="-0.7316324">
        <ele>795.3046875</ele>
      </trkpt>
      <trkpt lat="39.9208076" lon="-0.7312485">
        <ele>794.4687500</ele>
      </trkpt>
      <trkpt lat="39.9217957" lon="-0.7327290">
        <ele>805.4101563</ele>
      </trkpt>
      <trkpt lat="39.9240864" lon="-0.7318516">
        <ele>812.8867188</ele>
      </trkpt>
      <trkpt lat="39.9259729" lon="-0.7346481">
        <ele>832.4804688</ele>
      </trkpt>
      <trkpt lat="39.9287127" lon="-0.7351964">
        <ele>842.8867188</ele>
      </trkpt>
      <trkpt lat="39.9307339" lon="-0.7357996">
        <ele>836.6289063</ele>
      </trkpt>
      <trkpt lat="39.9322162" lon="-0.7383767">
        <ele>848.8984375</ele>
      </trkpt>
      <trkpt lat="39.9332043" lon="-0.7399120">
        <ele>849.1640625</ele>
      </trkpt>
      <trkpt lat="39.9347314" lon="-0.7399668">
        <ele>843.9882813</ele>
      </trkpt>
      <trkpt lat="39.9375162" lon="-0.7376090">
        <ele>867.6992188</ele>
      </trkpt>
      <trkpt lat="39.9380103" lon="-0.7365124">
        <ele>867.6914063</ele>
      </trkpt>
      <trkpt lat="39.9395374" lon="-0.7366220">
        <ele>888.6132813</ele>
      </trkpt>
      <trkpt lat="39.9405705" lon="-0.7349223">
        <ele>894.3750000</ele>
      </trkpt>
      <trkpt lat="39.9422549" lon="-0.7349223">
        <ele>929.4531250</ele>
      </trkpt>
      <trkpt lat="39.9434676" lon="-0.7358544">
        <ele>941.6210938</ele>
      </trkpt>
      <trkpt lat="39.9435126" lon="-0.7378832">
        <ele>969.6367188</ele>
      </trkpt>
      <trkpt lat="39.9447253" lon="-0.7358544">
        <ele>978.4375000</ele>
      </trkpt>
      <trkpt lat="39.9462973" lon="-0.7383219">
        <ele>1011.3320313</ele>
      </trkpt>
      <trkpt lat="39.9464321" lon="-0.7393088">
        <ele>1022.8867188</ele>
      </trkpt>
      <trkpt lat="39.9460727" lon="-0.7400765">
        <ele>1030.6015625</ele>
      </trkpt>
      <trkpt lat="39.9465219" lon="-0.7420505">
        <ele>1027.2421875</ele>
      </trkpt>
      <trkpt lat="39.9473753" lon="-0.7427085">
        <ele>1031.0312500</ele>
      </trkpt>
      <trkpt lat="39.9483634" lon="-0.7446276">
        <ele>1030.4375000</ele>
      </trkpt>
      <trkpt lat="39.9505194" lon="-0.7452856">
        <ele>1041.1250000</ele>
      </trkpt>
      <trkpt lat="39.9512381" lon="-0.7430923">
        <ele>1055.1093750</ele>
      </trkpt>
      <trkpt lat="39.9515076" lon="-0.7400217">
        <ele>1064.1601563</ele>
      </trkpt>
      <trkpt lat="39.9514177" lon="-0.7400217">
        <ele>1065.7968750</ele>
      </trkpt>
      <trkpt lat="39.9507440" lon="-0.7384864">
        <ele>1055.0742188</ele>
      </trkpt>
      <trkpt lat="39.9523161" lon="-0.7366221">
        <ele>1028.6953125</ele>
      </trkpt>
      <trkpt lat="39.9523609" lon="-0.7361835">
        <ele>1025.1484375</ele>
      </trkpt>
      <trkpt lat="39.9546965" lon="-0.7346482">
        <ele>998.8867188</ele>
      </trkpt>
      <trkpt lat="39.9565830" lon="-0.7351964">
        <ele>984.4648438</ele>
      </trkpt>
      <trkpt lat="39.9571220" lon="-0.7347578">
        <ele>981.3984375</ele>
      </trkpt>
      <trkpt lat="39.9574813" lon="-0.7356351">
        <ele>980.3906250</ele>
      </trkpt>
      <trkpt lat="39.9584245" lon="-0.7355254">
        <ele>981.5937500</ele>
      </trkpt>
      <trkpt lat="39.9600415" lon="-0.7376639">
        <ele>979.9375000</ele>
      </trkpt>
      <trkpt lat="39.9630958" lon="-0.7361286">
        <ele>976.3906250</ele>
      </trkpt>
      <trkpt lat="39.9665993" lon="-0.7309744">
        <ele>963.9531250</ele>
      </trkpt>
      <trkpt lat="39.9678569" lon="-0.7300422">
        <ele>965.8710938</ele>
      </trkpt>
      <trkpt lat="39.9685755" lon="-0.7332225">
        <ele>976.0898438</ele>
      </trkpt>
      <trkpt lat="39.9708662" lon="-0.7363479">
        <ele>990.2851563</ele>
      </trkpt>
      <trkpt lat="39.9718993" lon="-0.7381025">
        <ele>999.2617188</ele>
      </trkpt>
      <trkpt lat="39.9719442" lon="-0.7383219">
        <ele>999.9492188</ele>
      </trkpt>
      <trkpt lat="39.9727976" lon="-0.7426536">
        <ele>1000.0468750</ele>
      </trkpt>
      <trkpt lat="39.9742349" lon="-0.7438599">
        <ele>999.1171875</ele>
      </trkpt>
      <trkpt lat="39.9778731" lon="-0.7445727">
        <ele>998.2617188</ele>
      </trkpt>
      <trkpt lat="39.9788612" lon="-0.7445727">
        <ele>997.4023438</ele>
      </trkpt>
    </trkseg>
  </trk>

  <trk>
    <name>Casinos-Toro-Bejis</name>
    <extensions>
      <gpxx:TrackExtension xmlns:gpxx="http://www.garmin.com/xmlschemas/GpxExtensions/v3">
        <gpxx:DisplayColor>DarkMagenta</gpxx:DisplayColor>
      </gpxx:TrackExtension>
    </extensions>
    <trkseg>
      <trkpt lat="39.6971400" lon="-0.7122520">
        <ele>409.0000000</ele>
        <time>2008-06-21T07:43:43Z</time>
      </trkpt>
      <trkpt lat="39.6971070" lon="-0.7137570">
        <ele>409.0000000</ele>
        <time>2008-06-21T07:43:43Z</time>
      </trkpt>
      <trkpt lat="39.6973400" lon="-0.7140550">
        <ele>409.0000000</ele>
        <time>2008-06-21T07:43:43Z</time>
      </trkpt>
      <trkpt lat="39.6983400" lon="-0.7126510">
        <ele>409.0000000</ele>
        <time>2008-06-21T07:43:43Z</time>
      </trkpt>
      <trkpt lat="39.6999020" lon="-0.7136650">
        <ele>409.0000000</ele>
        <time>2008-06-21T07:43:43Z</time>
      </trkpt>
      <trkpt lat="39.7006500" lon="-0.7150770">
        <ele>409.0000000</ele>
        <time>2008-06-21T07:43:43Z</time>
      </trkpt>
      <trkpt lat="39.7020210" lon="-0.7157780">
        <ele>409.0000000</ele>
        <time>2008-06-21T07:43:43Z</time>
      </trkpt>
      <trkpt lat="39.7026830" lon="-0.7164880">
        <ele>409.0000000</ele>
        <time>2008-06-21T07:43:43Z</time>
      </trkpt>
      <trkpt lat="39.7032950" lon="-0.7167610">
        <ele>409.0000000</ele>
        <time>2008-06-21T07:43:43Z</time>
      </trkpt>
      <trkpt lat="39.7032870" lon="-0.7163480">
        <ele>409.0000000</ele>
        <time>2008-06-21T07:43:43Z</time>
      </trkpt>
      <trkpt lat="39.7044850" lon="-0.7177060">
        <ele>409.0000000</ele>
        <time>2008-06-21T07:43:43Z</time>
      </trkpt>
      <trkpt lat="39.7046730" lon="-0.7173270">
        <ele>409.0000000</ele>
        <time>2008-06-21T07:43:43Z</time>
      </trkpt>
      <trkpt lat="39.7050780" lon="-0.7185790">
        <ele>409.0000000</ele>
        <time>2008-06-21T07:43:43Z</time>
      </trkpt>
      <trkpt lat="39.7062950" lon="-0.7187380">
        <ele>409.0000000</ele>
        <time>2008-06-21T07:43:43Z</time>
      </trkpt>
      <trkpt lat="39.7071900" lon="-0.7177500">
        <ele>409.0000000</ele>
        <time>2008-06-21T07:43:43Z</time>
      </trkpt>
      <trkpt lat="39.7120110" lon="-0.7234660">
        <ele>409.0000000</ele>
        <time>2008-06-21T07:43:43Z</time>
      </trkpt>
      <trkpt lat="39.7161680" lon="-0.7270610">
        <ele>409.0000000</ele>
        <time>2008-06-21T07:43:43Z</time>
      </trkpt>
      <trkpt lat="39.7223720" lon="-0.7298090">
        <ele>409.0000000</ele>
        <time>2008-06-21T07:43:43Z</time>
      </trkpt>
      <trkpt lat="39.7234740" lon="-0.7311660">
        <ele>409.0000000</ele>
        <time>2008-06-21T07:43:43Z</time>
      </trkpt>
      <trkpt lat="39.7268410" lon="-0.7317790">
        <ele>409.0000000</ele>
        <time>2008-06-21T07:43:43Z</time>
      </trkpt>
      <trkpt lat="39.7310910" lon="-0.7345390">
        <ele>410.0000000</ele>
        <time>2008-06-21T07:44:00Z</time>
      </trkpt>
      <trkpt lat="39.7319680" lon="-0.7358480">
        <ele>416.0000000</ele>
        <time>2008-06-21T07:44:14Z</time>
      </trkpt>
      <trkpt lat="39.7322690" lon="-0.7372430">
        <ele>418.0000000</ele>
        <time>2008-06-21T07:44:22Z</time>
      </trkpt>
      <trkpt lat="39.7339020" lon="-0.7437440">
        <ele>434.0000000</ele>
        <time>2008-06-21T07:44:55Z</time>
      </trkpt>
      <trkpt lat="39.7346530" lon="-0.7447310">
        <ele>439.0000000</ele>
        <time>2008-06-21T07:45:03Z</time>
      </trkpt>
      <trkpt lat="39.7349740" lon="-0.7449670">
        <ele>439.0000000</ele>
        <time>2008-06-21T07:45:06Z</time>
      </trkpt>
      <trkpt lat="39.7359810" lon="-0.7461690">
        <ele>442.0000000</ele>
        <time>2008-06-21T07:45:18Z</time>
      </trkpt>
      <trkpt lat="39.7367740" lon="-0.7464690">
        <ele>445.0000000</ele>
        <time>2008-06-21T07:45:31Z</time>
      </trkpt>
      <trkpt lat="39.7373770" lon="-0.7470700">
        <ele>446.0000000</ele>
        <time>2008-06-21T07:45:42Z</time>
      </trkpt>
      <trkpt lat="39.7395210" lon="-0.7466200">
        <ele>452.0000000</ele>
        <time>2008-06-21T07:45:59Z</time>
      </trkpt>
      <trkpt lat="39.7419050" lon="-0.7467700">
        <ele>461.0000000</ele>
        <time>2008-06-21T07:46:15Z</time>
      </trkpt>
      <trkpt lat="39.7440950" lon="-0.7462120">
        <ele>469.0000000</ele>
        <time>2008-06-21T07:46:30Z</time>
      </trkpt>
      <trkpt lat="39.7448880" lon="-0.7456110">
        <ele>474.0000000</ele>
        <time>2008-06-21T07:46:41Z</time>
      </trkpt>
      <trkpt lat="39.7454720" lon="-0.7456740">
        <ele>477.0000000</ele>
        <time>2008-06-21T07:46:48Z</time>
      </trkpt>
      <trkpt lat="39.7456520" lon="-0.7459870">
        <ele>479.0000000</ele>
        <time>2008-06-21T07:47:06Z</time>
      </trkpt>
      <trkpt lat="39.7464980" lon="-0.7465550">
        <ele>483.0000000</ele>
        <time>2008-06-21T07:47:18Z</time>
      </trkpt>
      <trkpt lat="39.7476850" lon="-0.7482310">
        <ele>496.0000000</ele>
        <time>2008-06-21T07:47:44Z</time>
      </trkpt>
      <trkpt lat="39.7478900" lon="-0.7495810">
        <ele>497.0000000</ele>
        <time>2008-06-21T07:47:51Z</time>
      </trkpt>
      <trkpt lat="39.7477610" lon="-0.7504820">
        <ele>498.0000000</ele>
        <time>2008-06-21T07:47:58Z</time>
      </trkpt>
      <trkpt lat="39.7479130" lon="-0.7516190">
        <ele>506.0000000</ele>
        <time>2008-06-21T07:48:06Z</time>
      </trkpt>
      <trkpt lat="39.7480430" lon="-0.7537440">
        <ele>514.0000000</ele>
        <time>2008-06-21T07:48:19Z</time>
      </trkpt>
      <trkpt lat="39.7482990" lon="-0.7545160">
        <ele>520.0000000</ele>
        <time>2008-06-21T07:48:26Z</time>
      </trkpt>
      <trkpt lat="39.7486420" lon="-0.7550740">
        <ele>526.0000000</ele>
        <time>2008-06-21T07:48:32Z</time>
      </trkpt>
      <trkpt lat="39.7481500" lon="-0.7569620">
        <ele>546.0000000</ele>
        <time>2008-06-21T07:48:46Z</time>
      </trkpt>
      <trkpt lat="39.7481210" lon="-0.7575260">
        <ele>551.0000000</ele>
        <time>2008-06-21T07:48:54Z</time>
      </trkpt>
      <trkpt lat="39.7471930" lon="-0.7604510">
        <ele>568.0000000</ele>
        <time>2008-06-21T07:49:12Z</time>
      </trkpt>
      <trkpt lat="39.7473340" lon="-0.7615110">
        <ele>568.0000000</ele>
        <time>2008-06-21T07:49:18Z</time>
      </trkpt>
      <trkpt lat="39.7481270" lon="-0.7627130">
        <ele>565.0000000</ele>
        <time>2008-06-21T07:49:27Z</time>
      </trkpt>
      <trkpt lat="39.7491990" lon="-0.7650950">
        <ele>572.0000000</ele>
        <time>2008-06-21T07:49:44Z</time>
      </trkpt>
      <trkpt lat="39.7511520" lon="-0.7665540">
        <ele>560.0000000</ele>
        <time>2008-06-21T07:50:06Z</time>
      </trkpt>
      <trkpt lat="39.7514760" lon="-0.7671550">
        <ele>562.0000000</ele>
        <time>2008-06-21T07:50:11Z</time>
      </trkpt>
      <trkpt lat="39.7520330" lon="-0.7677770">
        <ele>561.0000000</ele>
        <time>2008-06-21T07:50:18Z</time>
      </trkpt>
      <trkpt lat="39.7525250" lon="-0.7682490">
        <ele>557.0000000</ele>
        <time>2008-06-21T07:50:24Z</time>
      </trkpt>
      <trkpt lat="39.7528270" lon="-0.7687850">
        <ele>556.0000000</ele>
        <time>2008-06-21T07:50:29Z</time>
      </trkpt>
      <trkpt lat="39.7530820" lon="-0.7696650">
        <ele>557.0000000</ele>
        <time>2008-06-21T07:50:37Z</time>
      </trkpt>
      <trkpt lat="39.7534260" lon="-0.7706740">
        <ele>554.0000000</ele>
        <time>2008-06-21T07:50:57Z</time>
      </trkpt>
      <trkpt lat="39.7536850" lon="-0.7709100">
        <ele>555.0000000</ele>
        <time>2008-06-21T07:51:02Z</time>
      </trkpt>
      <trkpt lat="39.7552070" lon="-0.7716180">
        <ele>547.0000000</ele>
        <time>2008-06-21T07:51:15Z</time>
      </trkpt>
      <trkpt lat="39.7561300" lon="-0.7724330">
        <ele>546.0000000</ele>
        <time>2008-06-21T07:51:24Z</time>
      </trkpt>
      <trkpt lat="39.7567750" lon="-0.7725830">
        <ele>544.0000000</ele>
        <time>2008-06-21T07:51:31Z</time>
      </trkpt>
      <trkpt lat="39.7573320" lon="-0.7720900">
        <ele>547.0000000</ele>
        <time>2008-06-21T07:51:36Z</time>
      </trkpt>
      <trkpt lat="39.7580180" lon="-0.7713820">
        <ele>547.0000000</ele>
        <time>2008-06-21T07:51:45Z</time>
      </trkpt>
      <trkpt lat="39.7590900" lon="-0.7709740">
        <ele>542.0000000</ele>
        <time>2008-06-21T07:51:54Z</time>
      </trkpt>
      <trkpt lat="39.7603150" lon="-0.7713820">
        <ele>546.0000000</ele>
        <time>2008-06-21T07:52:06Z</time>
      </trkpt>
      <trkpt lat="39.7608070" lon="-0.7727120">
        <ele>559.0000000</ele>
        <time>2008-06-21T07:52:18Z</time>
      </trkpt>
      <trkpt lat="39.7610890" lon="-0.7731200">
        <ele>565.0000000</ele>
        <time>2008-06-21T07:52:23Z</time>
      </trkpt>
      <trkpt lat="39.7616460" lon="-0.7732490">
        <ele>570.0000000</ele>
        <time>2008-06-21T07:52:30Z</time>
      </trkpt>
      <trkpt lat="39.7610240" lon="-0.7736560">
        <ele>575.0000000</ele>
        <time>2008-06-21T07:52:59Z</time>
      </trkpt>
      <trkpt lat="39.7603150" lon="-0.7741930">
        <ele>577.0000000</ele>
        <time>2008-06-21T07:53:04Z</time>
      </trkpt>
      <trkpt lat="39.7594150" lon="-0.7753520">
        <ele>578.0000000</ele>
        <time>2008-06-21T07:53:10Z</time>
      </trkpt>
      <trkpt lat="39.7585560" lon="-0.7773690">
        <ele>587.0000000</ele>
        <time>2008-06-21T07:53:25Z</time>
      </trkpt>
      <trkpt lat="39.7598000" lon="-0.7777760">
        <ele>593.0000000</ele>
        <time>2008-06-21T07:53:35Z</time>
      </trkpt>
      <trkpt lat="39.7605930" lon="-0.7777760">
        <ele>595.0000000</ele>
        <time>2008-06-21T07:53:41Z</time>
      </trkpt>
      <trkpt lat="39.7614330" lon="-0.7770470">
        <ele>596.0000000</ele>
        <time>2008-06-21T07:54:00Z</time>
      </trkpt>
      <trkpt lat="39.7618370" lon="-0.7770250">
        <ele>597.0000000</ele>
        <time>2008-06-21T07:54:03Z</time>
      </trkpt>
      <trkpt lat="39.7634700" lon="-0.7776470">
        <ele>602.0000000</ele>
        <time>2008-06-21T07:54:17Z</time>
      </trkpt>
      <trkpt lat="39.7659380" lon="-0.7782700">
        <ele>611.0000000</ele>
        <time>2008-06-21T07:54:33Z</time>
      </trkpt>
      <trkpt lat="39.7694780" lon="-0.7801150">
        <ele>625.0000000</ele>
        <time>2008-06-21T07:54:57Z</time>
      </trkpt>
      <trkpt lat="39.7698630" lon="-0.7808660">
        <ele>633.0000000</ele>
        <time>2008-06-21T07:55:03Z</time>
      </trkpt>
      <trkpt lat="39.7700580" lon="-0.7829480">
        <ele>638.0000000</ele>
        <time>2008-06-21T07:55:15Z</time>
      </trkpt>
      <trkpt lat="39.7705500" lon="-0.7839350">
        <ele>637.0000000</ele>
        <time>2008-06-21T07:55:22Z</time>
      </trkpt>
      <trkpt lat="39.7714960" lon="-0.7845140">
        <ele>637.0000000</ele>
        <time>2008-06-21T07:55:30Z</time>
      </trkpt>
      <trkpt lat="39.7728880" lon="-0.7852010">
        <ele>638.0000000</ele>
        <time>2008-06-21T07:55:40Z</time>
      </trkpt>
      <trkpt lat="39.7790986" lon="-0.7853674"/>
      <trkpt lat="39.7792693" lon="-0.7852144"/>
      <trkpt lat="39.7803383" lon="-0.7851866"/>
      <trkpt lat="39.7806527" lon="-0.7847139"/>
      <trkpt lat="39.7813171" lon="-0.7845539"/>
      <trkpt lat="39.7817662" lon="-0.7828160"/>
      <trkpt lat="39.7821705" lon="-0.7798269"/>
      <trkpt lat="39.7826197" lon="-0.7788537"/>
      <trkpt lat="39.7836078" lon="-0.7787146"/>
      <trkpt lat="39.7843714" lon="-0.7800354"/>
      <trkpt lat="39.7840121" lon="-0.7814257"/>
      <trkpt lat="39.7845510" lon="-0.7819819"/>
      <trkpt lat="39.7862129" lon="-0.7788537"/>
      <trkpt lat="39.7861230" lon="-0.7778109"/>
      <trkpt lat="39.7863926" lon="-0.7766292"/>
      <trkpt lat="39.7882790" lon="-0.7762121"/>
      <trkpt lat="39.7894020" lon="-0.7741961"/>
      <trkpt lat="39.7907494" lon="-0.7712764"/>
      <trkpt lat="39.7919621" lon="-0.7698166"/>
      <trkpt lat="39.7963639" lon="-0.7680787"/>
      <trkpt lat="39.7978910" lon="-0.7626565"/>
      <trkpt lat="39.7985647" lon="-0.7618223"/>
      <trkpt lat="39.7985647" lon="-0.7606405"/>
      <trkpt lat="39.7951511" lon="-0.7582075"/>
      <trkpt lat="39.7895816" lon="-0.7563306"/>
      <trkpt lat="39.7894200" lon="-0.7554129"/>
      <trkpt lat="39.7899410" lon="-0.7536612"/>
      <trkpt lat="39.7897973" lon="-0.7532441"/>
      <trkpt lat="39.7897074" lon="-0.7514644"/>
      <trkpt lat="39.7893166" lon="-0.7501159"/>
      <trkpt lat="39.7895996" lon="-0.7489688"/>
      <trkpt lat="39.7898152" lon="-0.7456529"/>
      <trkpt lat="39.7911897" lon="-0.7430044"/>
      <trkpt lat="39.7914187" lon="-0.7428167"/>
      <trkpt lat="39.7918903" lon="-0.7431712"/>
      <trkpt lat="39.7923350" lon="-0.7429418"/>
      <trkpt lat="39.7919981" lon="-0.7411275"/>
      <trkpt lat="39.7920655" lon="-0.7405227"/>
      <trkpt lat="39.7907180" lon="-0.7386041"/>
      <trkpt lat="39.7903542" lon="-0.7378116"/>
      <trkpt lat="39.7905028" lon="-0.7365813"/>
      <trkpt lat="39.7916347" lon="-0.7342038"/>
      <trkpt lat="39.7917155" lon="-0.7334531"/>
      <trkpt lat="39.7924432" lon="-0.7313676"/>
      <trkpt lat="39.7928339" lon="-0.7294490"/>
      <trkpt lat="39.7959331" lon="-0.7227964"/>
      <trkpt lat="39.7962700" lon="-0.7202313"/>
      <trkpt lat="39.7971458" lon="-0.7182501"/>
      <trkpt lat="39.7983046" lon="-0.7171656"/>
      <trkpt lat="39.7985341" lon="-0.7160186"/>
      <trkpt lat="39.7992752" lon="-0.7163314"/>
      <trkpt lat="39.8001241" lon="-0.7159978"/>
      <trkpt lat="39.8005688" lon="-0.7165817"/>
      <trkpt lat="39.8016737" lon="-0.7173325"/>
      <trkpt lat="39.8056300" lon="-0.7195400"/>
      <trkpt lat="39.8056000" lon="-0.7197400"/>
      <trkpt lat="39.8060700" lon="-0.7205300"/>
      <trkpt lat="39.8068400" lon="-0.7209900"/>
      <trkpt lat="39.8076500" lon="-0.7218000"/>
      <trkpt lat="39.8080800" lon="-0.7218600"/>
      <trkpt lat="39.8084500" lon="-0.7229200"/>
      <trkpt lat="39.8091200" lon="-0.7234600"/>
      <trkpt lat="39.8096900" lon="-0.7250600"/>
      <trkpt lat="39.8099000" lon="-0.7261200"/>
      <trkpt lat="39.8103700" lon="-0.7269300"/>
      <trkpt lat="39.8139800" lon="-0.7295000"/>
      <trkpt lat="39.8143400" lon="-0.7309000"/>
      <trkpt lat="39.8148500" lon="-0.7320400"/>
      <trkpt lat="39.8152900" lon="-0.7338700"/>
      <trkpt lat="39.8162600" lon="-0.7353900"/>
      <trkpt lat="39.8177500" lon="-0.7368600"/>
      <trkpt lat="39.8187300" lon="-0.7382200"/>
      <trkpt lat="39.8193300" lon="-0.7403000"/>
      <trkpt lat="39.8194800" lon="-0.7421100"/>
      <trkpt lat="39.8207300" lon="-0.7433400"/>
      <trkpt lat="39.8216500" lon="-0.7439400"/>
      <trkpt lat="39.8223800" lon="-0.7448100"/>
      <trkpt lat="39.8227700" lon="-0.7451100"/>
      <trkpt lat="39.8239200" lon="-0.7478700"/>
      <trkpt lat="39.8248200" lon="-0.7486600"/>
      <trkpt lat="39.8256300" lon="-0.7498000"/>
      <trkpt lat="39.8266200" lon="-0.7505100"/>
      <trkpt lat="39.8281600" lon="-0.7520300"/>
      <trkpt lat="39.8297000" lon="-0.7524600"/>
      <trkpt lat="39.8337000" lon="-0.7540100"/>
      <trkpt lat="39.8347500" lon="-0.7545800"/>
      <trkpt lat="39.8377400" lon="-0.7542300"/>
      <trkpt lat="39.8391300" lon="-0.7543700"/>
      <trkpt lat="39.8405500" lon="-0.7547700"/>
      <trkpt lat="39.8410100" lon="-0.7550000"/>
      <trkpt lat="39.8418700" lon="-0.7558500"/>
      <trkpt lat="39.8434100" lon="-0.7570000"/>
      <trkpt lat="39.8438100" lon="-0.7580300"/>
      <trkpt lat="39.8441100" lon="-0.7583600"/>
      <trkpt lat="39.8443300" lon="-0.7588600"/>
      <trkpt lat="39.8449000" lon="-0.7584600"/>
      <trkpt lat="39.8486300" lon="-0.7590200"/>
      <trkpt lat="39.8500300" lon="-0.7593900"/>
      <trkpt lat="39.8516600" lon="-0.7602400"/>
      <trkpt lat="39.8533000" lon="-0.7605000"/>
      <trkpt lat="39.8533870" lon="-0.7607420">
        <ele>1182.1000000</ele>
        <time>1989-12-30T23:59:59Z</time>
      </trkpt>
      <trkpt lat="39.8555240" lon="-0.7631670">
        <ele>1164.8000000</ele>
        <time>1989-12-30T23:59:59Z</time>
      </trkpt>
      <trkpt lat="39.8568530" lon="-0.7672410">
        <ele>1151.3000000</ele>
        <time>1989-12-30T23:59:59Z</time>
      </trkpt>
      <trkpt lat="39.8589710" lon="-0.7677280">
        <ele>1124.4000000</ele>
        <time>1989-12-30T23:59:59Z</time>
      </trkpt>
      <trkpt lat="39.8603160" lon="-0.7692290">
        <ele>1126.3000000</ele>
        <time>1989-12-30T23:59:59Z</time>
      </trkpt>
      <trkpt lat="39.8658550" lon="-0.7712850">
        <ele>1143.1000000</ele>
        <time>1989-12-30T23:59:59Z</time>
      </trkpt>
      <trkpt lat="39.8729470" lon="-0.7702020">
        <ele>1120.6000000</ele>
        <time>1989-12-30T23:59:59Z</time>
      </trkpt>
      <trkpt lat="39.8752120" lon="-0.7745830">
        <ele>1117.7000000</ele>
        <time>1989-12-30T23:59:59Z</time>
      </trkpt>
      <trkpt lat="39.8750330" lon="-0.7773910">
        <ele>1110.5000000</ele>
        <time>1989-12-30T23:59:59Z</time>
      </trkpt>
      <trkpt lat="39.8778150" lon="-0.7772530">
        <ele>1145.1000000</ele>
        <time>1989-12-30T23:59:59Z</time>
      </trkpt>
      <trkpt lat="39.8796700" lon="-0.7781320">
        <ele>1167.2000000</ele>
        <time>1989-12-30T23:59:59Z</time>
      </trkpt>
      <trkpt lat="39.8785320" lon="-0.7755630">
        <ele>1192.2000000</ele>
        <time>1989-12-30T23:59:59Z</time>
      </trkpt>
      <trkpt lat="39.8800960" lon="-0.7747940">
        <ele>1210.4000000</ele>
        <time>1989-12-30T23:59:59Z</time>
      </trkpt>
      <trkpt lat="39.8810483" lon="-0.7738278"/>
      <trkpt lat="39.8824900" lon="-0.7738278"/>
      <trkpt lat="39.8827056" lon="-0.7736401"/>
      <trkpt lat="39.8838100" lon="-0.7747800"/>
      <trkpt lat="39.8848100" lon="-0.7746100"/>
      <trkpt lat="39.8853800" lon="-0.7751300"/>
      <trkpt lat="39.8860000" lon="-0.7759600"/>
      <trkpt lat="39.8861800" lon="-0.7768400"/>
      <trkpt lat="39.8866000" lon="-0.7776100"/>
      <trkpt lat="39.8870200" lon="-0.7775200"/>
      <trkpt lat="39.8881500" lon="-0.7778600"/>
      <trkpt lat="39.8887000" lon="-0.7783800"/>
      <trkpt lat="39.8887200" lon="-0.7772700"/>
      <trkpt lat="39.8889600" lon="-0.7771800"/>
      <trkpt lat="39.8894800" lon="-0.7774200"/>
      <trkpt lat="39.8893700" lon="-0.7766000"/>
      <trkpt lat="39.8895400" lon="-0.7757300"/>
      <trkpt lat="39.8898400" lon="-0.7756000"/>
      <trkpt lat="39.8904600" lon="-0.7745900"/>
      <trkpt lat="39.8908200" lon="-0.7726600"/>
      <trkpt lat="39.8907700" lon="-0.7722500"/>
      <trkpt lat="39.8904400" lon="-0.7717300"/>
      <trkpt lat="39.8907100" lon="-0.7708700"/>
      <trkpt lat="39.8920200" lon="-0.7696700"/>
      <trkpt lat="39.8933700" lon="-0.7704700"/>
      <trkpt lat="39.8935800" lon="-0.7709300"/>
      <trkpt lat="39.8937800" lon="-0.7709300"/>
      <trkpt lat="39.8936900" lon="-0.7691000"/>
      <trkpt lat="39.8940000" lon="-0.7679800"/>
      <trkpt lat="39.8946200" lon="-0.7673000"/>
      <trkpt lat="39.8950500" lon="-0.7656100"/>
      <trkpt lat="39.8960300" lon="-0.7648500"/>
      <trkpt lat="39.8964800" lon="-0.7647700"/>
      <trkpt lat="39.8970800" lon="-0.7651300"/>
      <trkpt lat="39.8971600" lon="-0.7657800"/>
      <trkpt lat="39.8974200" lon="-0.7661300"/>
      <trkpt lat="39.8974900" lon="-0.7658600"/>
      <trkpt lat="39.8981000" lon="-0.7657300"/>
      <trkpt lat="39.8985400" lon="-0.7650600"/>
      <trkpt lat="39.8994700" lon="-0.7644700"/>
      <trkpt lat="39.8995600" lon="-0.7642400"/>
      <trkpt lat="39.8998000" lon="-0.7641100"/>
      <trkpt lat="39.9007400" lon="-0.7628600"/>
      <trkpt lat="39.9018000" lon="-0.7629000"/>
      <trkpt lat="39.9014700" lon="-0.7614400"/>
      <trkpt lat="39.9009200" lon="-0.7599400"/>
      <trkpt lat="39.9012500" lon="-0.7590000"/>
      <trkpt lat="39.9016900" lon="-0.7584200"/>
      <trkpt lat="39.9024400" lon="-0.7569900"/>
      <trkpt lat="39.9027300" lon="-0.7559600"/>
      <trkpt lat="39.9046200" lon="-0.7554900"/>
      <trkpt lat="39.9059200" lon="-0.7557500"/>
      <trkpt lat="39.9061900" lon="-0.7556000"/>
      <trkpt lat="39.9065900" lon="-0.7544600"/>
      <trkpt lat="39.9066000" lon="-0.7535500"/>
      <trkpt lat="39.9076100" lon="-0.7521600"/>
      <trkpt lat="39.9082700" lon="-0.7513700"/>
      <trkpt lat="39.9085500" lon="-0.7512100"/>
      <trkpt lat="39.9093100" lon="-0.7490500"/>
      <trkpt lat="39.9103100" lon="-0.7478000"/>
      <trkpt lat="39.9103400" lon="-0.7469900"/>
      <trkpt lat="39.9108600" lon="-0.7453700"/>
      <trkpt lat="39.9111900" lon="-0.7453500"/>
      <trkpt lat="39.9118900" lon="-0.7445700"/>
      <trkpt lat="39.9130900" lon="-0.7438300"/>
      <trkpt lat="39.9134500" lon="-0.7426600"/>
      <trkpt lat="39.9136500" lon="-0.7413200"/>
      <trkpt lat="39.9139000" lon="-0.7407500"/>
      <trkpt lat="39.9136000" lon="-0.7398400"/>
      <trkpt lat="39.9127000" lon="-0.7396600"/>
      <trkpt lat="39.9120700" lon="-0.7391000"/>
      <trkpt lat="39.9118800" lon="-0.7386200"/>
      <trkpt lat="39.9131500" lon="-0.7362600"/>
      <trkpt lat="39.9142500" lon="-0.7328200"/>
      <trkpt lat="39.9142100" lon="-0.7321400"/>
      <trkpt lat="39.9138400" lon="-0.7315500"/>
      <trkpt lat="39.9136000" lon="-0.7294300"/>
      <trkpt lat="39.9137400" lon="-0.7293900"/>
      <trkpt lat="39.9140900" lon="-0.7297700"/>
      <trkpt lat="39.9142600" lon="-0.7301800"/>
      <trkpt lat="39.9151600" lon="-0.7314500"/>
      <trkpt lat="39.9149600" lon="-0.7305000"/>
      <trkpt lat="39.9145700" lon="-0.7297400"/>
      <trkpt lat="39.9144400" lon="-0.7284600"/>
      <trkpt lat="39.9145700" lon="-0.7274400"/>
      <trkpt lat="39.9151100" lon="-0.7259400"/>
      <trkpt lat="39.9150200" lon="-0.7244000"/>
      <trkpt lat="39.9152100" lon="-0.7240700"/>
      <trkpt lat="39.9152100" lon="-0.7236400"/>
      <trkpt lat="39.9149600" lon="-0.7226100"/>
      <trkpt lat="39.9151300" lon="-0.7224600"/>
      <trkpt lat="39.9157800" lon="-0.7232600"/>
      <trkpt lat="39.9162800" lon="-0.7234700"/>
      <trkpt lat="39.9160500" lon="-0.7225400"/>
      <trkpt lat="39.9163300" lon="-0.7219100"/>
      <trkpt lat="39.9164200" lon="-0.7226000"/>
      <trkpt lat="39.9165400" lon="-0.7226200"/>
      <trkpt lat="39.9168300" lon="-0.7212700"/>
      <trkpt lat="39.9161200" lon="-0.7198400"/>
      <trkpt lat="39.9159900" lon="-0.7190900"/>
      <trkpt lat="39.9155500" lon="-0.7183600"/>
      <trkpt lat="39.9156100" lon="-0.7173000"/>
      <trkpt lat="39.9154500" lon="-0.7164500"/>
      <trkpt lat="39.9150800" lon="-0.7154000"/>
      <trkpt lat="39.9146100" lon="-0.7146800"/>
      <trkpt lat="39.9135500" lon="-0.7138500"/>
      <trkpt lat="39.9127600" lon="-0.7138500"/>
      <trkpt lat="39.9118300" lon="-0.7128300"/>
      <trkpt lat="39.9113100" lon="-0.7128500"/>
      <trkpt lat="39.9103200" lon="-0.7124400"/>
      <trkpt lat="39.9100400" lon="-0.7120400"/>
      <trkpt lat="39.9106300" lon="-0.7107200"/>
      <trkpt lat="39.9106000" lon="-0.7098300"/>
      <trkpt lat="39.9107500" lon="-0.7089700"/>
      <trkpt lat="39.9105600" lon="-0.7076500"/>
      <trkpt lat="39.9106100" lon="-0.7070200"/>
      <trkpt lat="39.9111000" lon="-0.7063000"/>
      <trkpt lat="39.9113400" lon="-0.7056500"/>
      <trkpt lat="39.9114000" lon="-0.7046300"/>
      <trkpt lat="39.9117200" lon="-0.7036300"/>
      <trkpt lat="39.9113000" lon="-0.7026400"/>
      <trkpt lat="39.9110600" lon="-0.7036500"/>
      <trkpt lat="39.9108700" lon="-0.7038700"/>
    </trkseg>
  </trk>

  <trk>
    <name>Rambla</name>
    <extensions>
      <gpxx:TrackExtension xmlns:gpxx="http://www.garmin.com/xmlschemas/GpxExtensions/v3">
        <gpxx:DisplayColor>White</gpxx:DisplayColor>
      </gpxx:TrackExtension>
    </extensions>
    <trkseg>
      <trkpt lat="39.6112293" lon="-0.6652309">
        <ele>119.8214111</ele>
      </trkpt>
      <trkpt lat="39.6140767" lon="-0.6631421">
        <ele>122.2247314</ele>
      </trkpt>
      <trkpt lat="39.6220568" lon="-0.6616100">
        <ele>139.5284424</ele>
      </trkpt>
      <trkpt lat="39.6270497" lon="-0.6630892">
        <ele>148.6610107</ele>
      </trkpt>
      <trkpt lat="39.6328506" lon="-0.6696980">
        <ele>158.2741699</ele>
      </trkpt>
      <trkpt lat="39.6377841" lon="-0.6743613">
        <ele>168.8487549</ele>
      </trkpt>
      <trkpt lat="39.6602578" lon="-0.6753812">
        <ele>204.8980713</ele>
      </trkpt>
      <trkpt lat="39.6671194" lon="-0.6800100">
        <ele>218.8372803</ele>
      </trkpt>
      <trkpt lat="39.6670543" lon="-0.6820030">
        <ele>220.2791748</ele>
      </trkpt>
      <trkpt lat="39.6712867" lon="-0.6888518">
        <ele>226.5278320</ele>
      </trkpt>
      <trkpt lat="39.6756487" lon="-0.6918863">
        <ele>243.3508301</ele>
      </trkpt>
      <trkpt lat="39.6794917" lon="-0.6991340">
        <ele>255.8480225</ele>
      </trkpt>
      <trkpt lat="39.6853546" lon="-0.7017752">
        <ele>264.9805908</ele>
      </trkpt>
      <trkpt lat="39.6888745" lon="-0.7059093">
        <ele>274.6210938</ele>
      </trkpt>
      <trkpt lat="39.6913539" lon="-0.7070937">
        <ele>288.1015625</ele>
      </trkpt>
      <trkpt lat="39.6936176" lon="-0.7081684">
        <ele>289.4843750</ele>
      </trkpt>
      <trkpt lat="39.6943538" lon="-0.7084316">
        <ele>292.1210938</ele>
      </trkpt>
      <trkpt lat="39.6953239" lon="-0.7097256">
        <ele>300.5859375</ele>
      </trkpt>
      <trkpt lat="39.6960426" lon="-0.7104494">
        <ele>297.9257813</ele>
      </trkpt>
      <trkpt lat="39.6969768" lon="-0.7111074">
        <ele>306.8984375</ele>
      </trkpt>
      <trkpt lat="39.6969589" lon="-0.7111074">
        <ele>306.6250000</ele>
      </trkpt>
      <trkpt lat="39.6975338" lon="-0.7113925">
        <ele>310.8281250</ele>
      </trkpt>
      <trkpt lat="39.6971565" lon="-0.7122479">
        <ele>306.9218750</ele>
      </trkpt>
    </trkseg>
  </trk>

  <trk>
    <name>Ribarroja - Rambla</name>
    <extensions>
      <gpxx:TrackExtension xmlns:gpxx="http://www.garmin.com/xmlschemas/GpxExtensions/v3">
        <gpxx:DisplayColor>White</gpxx:DisplayColor>
      </gpxx:TrackExtension>
    </extensions>
    <trkseg>
      <trkpt lat="39.5433900" lon="-0.5554100"/>
      <trkpt lat="39.5436000" lon="-0.5556300"/>
      <trkpt lat="39.5437100" lon="-0.5559600"/>
      <trkpt lat="39.5437300" lon="-0.5562600"/>
      <trkpt lat="39.5436300" lon="-0.5569800"/>
      <trkpt lat="39.5436300" lon="-0.5572700"/>
      <trkpt lat="39.5438700" lon="-0.5586400"/>
      <trkpt lat="39.5443200" lon="-0.5600500"/>
      <trkpt lat="39.5448600" lon="-0.5621300"/>
      <trkpt lat="39.5450000" lon="-0.5623600"/>
      <trkpt lat="39.5451100" lon="-0.5623800"/>
      <trkpt lat="39.5451400" lon="-0.5624400"/>
      <trkpt lat="39.5450100" lon="-0.5628700"/>
      <trkpt lat="39.5450600" lon="-0.5636400"/>
      <trkpt lat="39.5450600" lon="-0.5636400"/>
      <trkpt lat="39.5456900" lon="-0.5631100"/>
      <trkpt lat="39.5462800" lon="-0.5625200"/>
      <trkpt lat="39.5464800" lon="-0.5622900"/>
      <trkpt lat="39.5464400" lon="-0.5622100"/>
      <trkpt lat="39.5464700" lon="-0.5620700"/>
      <trkpt lat="39.5465500" lon="-0.5620000"/>
      <trkpt lat="39.5466800" lon="-0.5620600"/>
      <trkpt lat="39.5479000" lon="-0.5605400"/>
      <trkpt lat="39.5481400" lon="-0.5603600"/>
      <trkpt lat="39.5486300" lon="-0.5603300"/>
      <trkpt lat="39.5498000" lon="-0.5606600"/>
      <trkpt lat="39.5500800" lon="-0.5606400"/>
      <trkpt lat="39.5500800" lon="-0.5606400"/>
      <trkpt lat="39.5502800" lon="-0.5608100"/>
      <trkpt lat="39.5505400" lon="-0.5611900"/>
      <trkpt lat="39.5505400" lon="-0.5611900"/>
      <trkpt lat="39.5504800" lon="-0.5616200"/>
      <trkpt lat="39.5504800" lon="-0.5616200"/>
      <trkpt lat="39.5503500" lon="-0.5617400"/>
      <trkpt lat="39.5502800" lon="-0.5618800"/>
      <trkpt lat="39.5497800" lon="-0.5631600"/>
      <trkpt lat="39.5497800" lon="-0.5631600"/>
      <trkpt lat="39.5502900" lon="-0.5643800"/>
      <trkpt lat="39.5505600" lon="-0.5651900"/>
      <trkpt lat="39.5507300" lon="-0.5655000"/>
      <trkpt lat="39.5509900" lon="-0.5657900"/>
      <trkpt lat="39.5513200" lon="-0.5659800"/>
      <trkpt lat="39.5518700" lon="-0.5661700"/>
      <trkpt lat="39.5522900" lon="-0.5664400"/>
      <trkpt lat="39.5531400" lon="-0.5670900"/>
      <trkpt lat="39.5539700" lon="-0.5678800"/>
      <trkpt lat="39.5558200" lon="-0.5694400"/>
      <trkpt lat="39.5565000" lon="-0.5695900"/>
      <trkpt lat="39.5568800" lon="-0.5697800"/>
      <trkpt lat="39.5570800" lon="-0.5700600"/>
      <trkpt lat="39.5570600" lon="-0.5708200"/>
      <trkpt lat="39.5571200" lon="-0.5712200"/>
      <trkpt lat="39.5572500" lon="-0.5715600"/>
      <trkpt lat="39.5574200" lon="-0.5717900"/>
      <trkpt lat="39.5582700" lon="-0.5723200"/>
      <trkpt lat="39.5585300" lon="-0.5725500"/>
      <trkpt lat="39.5593900" lon="-0.5729800"/>
      <trkpt lat="39.5598900" lon="-0.5735200"/>
      <trkpt lat="39.5607800" lon="-0.5742600"/>
      <trkpt lat="39.5611700" lon="-0.5746600"/>
      <trkpt lat="39.5618400" lon="-0.5750900"/>
      <trkpt lat="39.5622900" lon="-0.5755600"/>
      <trkpt lat="39.5628800" lon="-0.5759100"/>
      <trkpt lat="39.5631800" lon="-0.5762400"/>
      <trkpt lat="39.5637800" lon="-0.5776200"/>
      <trkpt lat="39.5639600" lon="-0.5781900"/>
      <trkpt lat="39.5641800" lon="-0.5791400"/>
      <trkpt lat="39.5642800" lon="-0.5794100"/>
      <trkpt lat="39.5646400" lon="-0.5800800"/>
      <trkpt lat="39.5647400" lon="-0.5806500"/>
      <trkpt lat="39.5651300" lon="-0.5813100"/>
      <trkpt lat="39.5653500" lon="-0.5824400"/>
      <trkpt lat="39.5652800" lon="-0.5829900"/>
      <trkpt lat="39.5653000" lon="-0.5832300"/>
      <trkpt lat="39.5660100" lon="-0.5847600"/>
      <trkpt lat="39.5661400" lon="-0.5854600"/>
      <trkpt lat="39.5664100" lon="-0.5864200"/>
      <trkpt lat="39.5665200" lon="-0.5870000"/>
      <trkpt lat="39.5665600" lon="-0.5877800"/>
      <trkpt lat="39.5664900" lon="-0.5884700"/>
      <trkpt lat="39.5665000" lon="-0.5891300"/>
      <trkpt lat="39.5664200" lon="-0.5896700"/>
      <trkpt lat="39.5664600" lon="-0.5901000"/>
      <trkpt lat="39.5666000" lon="-0.5904800"/>
      <trkpt lat="39.5667900" lon="-0.5912600"/>
      <trkpt lat="39.5672400" lon="-0.5918500"/>
      <trkpt lat="39.5674700" lon="-0.5924800"/>
      <trkpt lat="39.5676600" lon="-0.5927600"/>
      <trkpt lat="39.5680000" lon="-0.5931000"/>
      <trkpt lat="39.5684800" lon="-0.5934600"/>
      <trkpt lat="39.5691800" lon="-0.5943600"/>
      <trkpt lat="39.5695600" lon="-0.5947600"/>
      <trkpt lat="39.5708900" lon="-0.5958900"/>
      <trkpt lat="39.5713300" lon="-0.5960500"/>
      <trkpt lat="39.5730500" lon="-0.5963200"/>
      <trkpt lat="39.5744900" lon="-0.5964200"/>
      <trkpt lat="39.5761000" lon="-0.5971600"/>
      <trkpt lat="39.5764000" lon="-0.5973500"/>
      <trkpt lat="39.5765700" lon="-0.5975200"/>
      <trkpt lat="39.5765700" lon="-0.5975200"/>
      <trkpt lat="39.5786300" lon="-0.5997800"/>
      <trkpt lat="39.5784100" lon="-0.6004700"/>
      <trkpt lat="39.5784100" lon="-0.6008700"/>
      <trkpt lat="39.5785000" lon="-0.6015500"/>
      <trkpt lat="39.5785900" lon="-0.6018100"/>
      <trkpt lat="39.5789300" lon="-0.6024800"/>
      <trkpt lat="39.5793100" lon="-0.6029500"/>
      <trkpt lat="39.5801800" lon="-0.6037600"/>
      <trkpt lat="39.5804600" lon="-0.6041000"/>
      <trkpt lat="39.5805400" lon="-0.6043900"/>
      <trkpt lat="39.5805800" lon="-0.6047900"/>
      <trkpt lat="39.5808600" lon="-0.6095000"/>
      <trkpt lat="39.5809500" lon="-0.6102200"/>
      <trkpt lat="39.5810600" lon="-0.6106400"/>
      <trkpt lat="39.5814100" lon="-0.6115000"/>
      <trkpt lat="39.5821400" lon="-0.6129500"/>
      <trkpt lat="39.5839700" lon="-0.6172800"/>
      <trkpt lat="39.5840300" lon="-0.6175700"/>
      <trkpt lat="39.5842400" lon="-0.6181500"/>
      <trkpt lat="39.5848300" lon="-0.6192700"/>
      <trkpt lat="39.5852100" lon="-0.6198700"/>
      <trkpt lat="39.5854700" lon="-0.6206000"/>
      <trkpt lat="39.5856200" lon="-0.6218000"/>
      <trkpt lat="39.5859900" lon="-0.6231000"/>
      <trkpt lat="39.5861600" lon="-0.6243900"/>
      <trkpt lat="39.5862000" lon="-0.6245100"/>
      <trkpt lat="39.5865100" lon="-0.6249500"/>
      <trkpt lat="39.5866900" lon="-0.6254500"/>
      <trkpt lat="39.5867000" lon="-0.6263200"/>
      <trkpt lat="39.5865800" lon="-0.6269400"/>
      <trkpt lat="39.5865400" lon="-0.6282800"/>
      <trkpt lat="39.5864700" lon="-0.6291900"/>
      <trkpt lat="39.5865300" lon="-0.6301600"/>
      <trkpt lat="39.5866100" lon="-0.6308000"/>
      <trkpt lat="39.5868200" lon="-0.6314300"/>
      <trkpt lat="39.5869200" lon="-0.6318800"/>
      <trkpt lat="39.5869800" lon="-0.6328400"/>
      <trkpt lat="39.5872200" lon="-0.6342900"/>
      <trkpt lat="39.5873100" lon="-0.6346200"/>
      <trkpt lat="39.5877300" lon="-0.6356600"/>
      <trkpt lat="39.5879800" lon="-0.6361900"/>
      <trkpt lat="39.5881900" lon="-0.6364700"/>
      <trkpt lat="39.5897600" lon="-0.6381200"/>
      <trkpt lat="39.5900900" lon="-0.6388700"/>
      <trkpt lat="39.5905000" lon="-0.6395400"/>
      <trkpt lat="39.5906400" lon="-0.6396900"/>
      <trkpt lat="39.5911100" lon="-0.6399700"/>
      <trkpt lat="39.5915800" lon="-0.6405000"/>
      <trkpt lat="39.5916700" lon="-0.6405600"/>
      <trkpt lat="39.5922300" lon="-0.6406900"/>
      <trkpt lat="39.5926500" lon="-0.6405900"/>
      <trkpt lat="39.5932900" lon="-0.6402500"/>
      <trkpt lat="39.5937000" lon="-0.6402500"/>
      <trkpt lat="39.5938100" lon="-0.6403600"/>
      <trkpt lat="39.5938400" lon="-0.6408300"/>
      <trkpt lat="39.5944100" lon="-0.6413400"/>
      <trkpt lat="39.5961100" lon="-0.6417100"/>
      <trkpt lat="39.5968300" lon="-0.6416700"/>
      <trkpt lat="39.5973200" lon="-0.6421600"/>
      <trkpt lat="39.5978800" lon="-0.6431400"/>
      <trkpt lat="39.5989400" lon="-0.6439200"/>
      <trkpt lat="39.5996600" lon="-0.6447800"/>
      <trkpt lat="39.6010000" lon="-0.6459200"/>
      <trkpt lat="39.6012100" lon="-0.6459100"/>
      <trkpt lat="39.6018400" lon="-0.6455700"/>
      <trkpt lat="39.6019800" lon="-0.6455500"/>
      <trkpt lat="39.6025300" lon="-0.6460200"/>
      <trkpt lat="39.6025300" lon="-0.6460200"/>
      <trkpt lat="39.6030700" lon="-0.6451700"/>
      <trkpt lat="39.6033300" lon="-0.6448500"/>
      <trkpt lat="39.6033300" lon="-0.6448500"/>
      <trkpt lat="39.6039700" lon="-0.6458900"/>
      <trkpt lat="39.6050000" lon="-0.6471500"/>
      <trkpt lat="39.6051000" lon="-0.6472200"/>
      <trkpt lat="39.6063600" lon="-0.6473000"/>
      <trkpt lat="39.6064900" lon="-0.6473600"/>
      <trkpt lat="39.6064900" lon="-0.6473600"/>
      <trkpt lat="39.6066300" lon="-0.6475400"/>
      <trkpt lat="39.6067600" lon="-0.6478600"/>
      <trkpt lat="39.6069100" lon="-0.6484800"/>
      <trkpt lat="39.6074500" lon="-0.6497400"/>
      <trkpt lat="39.6086000" lon="-0.6516700"/>
      <trkpt lat="39.6086600" lon="-0.6519200"/>
      <trkpt lat="39.6086400" lon="-0.6524300"/>
      <trkpt lat="39.6086800" lon="-0.6526100"/>
      <trkpt lat="39.6092700" lon="-0.6535500"/>
      <trkpt lat="39.6093700" lon="-0.6538300"/>
      <trkpt lat="39.6096200" lon="-0.6550600"/>
      <trkpt lat="39.6102300" lon="-0.6570700"/>
      <trkpt lat="39.6102900" lon="-0.6575100"/>
      <trkpt lat="39.6102700" lon="-0.6588500"/>
      <trkpt lat="39.6103200" lon="-0.6595200"/>
      <trkpt lat="39.6110100" lon="-0.6616600"/>
      <trkpt lat="39.6112100" lon="-0.6621800"/>
      <trkpt lat="39.6115400" lon="-0.6627800"/>
      <trkpt lat="39.6116100" lon="-0.6631000"/>
      <trkpt lat="39.6116900" lon="-0.6641900"/>
      <trkpt lat="39.6116500" lon="-0.6644000"/>
      <trkpt lat="39.6114600" lon="-0.6647500"/>
    </trkseg>
  </trk>

  <trk>
    <name>Variante BASE TORO</name>
    <extensions>
      <gpxx:TrackExtension xmlns:gpxx="http://www.garmin.com/xmlschemas/GpxExtensions/v3">
        <gpxx:DisplayColor>Green</gpxx:DisplayColor>
      </gpxx:TrackExtension>
    </extensions>
    <trkseg>
      <trkpt lat="39.8800960" lon="-0.7747940">
        <ele>1210.4000000</ele>
        <time>1989-12-30T23:59:59Z</time>
      </trkpt>
      <trkpt lat="39.8811080" lon="-0.7774710">
        <ele>1241.7000000</ele>
        <time>1989-12-30T23:59:59Z</time>
      </trkpt>
      <trkpt lat="39.8815270" lon="-0.7766420">
        <ele>1251.8000000</ele>
        <time>1989-12-30T23:59:59Z</time>
      </trkpt>
      <trkpt lat="39.8827690" lon="-0.7788660">
        <ele>1293.1000000</ele>
        <time>1989-12-30T23:59:59Z</time>
      </trkpt>
      <trkpt lat="39.8820420" lon="-0.7812640">
        <ele>1317.6000000</ele>
        <time>1989-12-30T23:59:59Z</time>
      </trkpt>
      <trkpt lat="39.8839270" lon="-0.7815520">
        <ele>1341.2000000</ele>
        <time>1989-12-30T23:59:59Z</time>
      </trkpt>
      <trkpt lat="39.8870470" lon="-0.7840840">
        <ele>1387.3000000</ele>
        <time>1989-12-30T23:59:59Z</time>
      </trkpt>
      <trkpt lat="39.8859430" lon="-0.7853480">
        <ele>1408.0000000</ele>
        <time>1989-12-30T23:59:59Z</time>
      </trkpt>
      <trkpt lat="39.8861820" lon="-0.7867260">
        <ele>1419.5000000</ele>
        <time>1989-12-30T23:59:59Z</time>
      </trkpt>
      <trkpt lat="39.8852600" lon="-0.7860360">
        <ele>1425.3000000</ele>
        <time>1989-12-30T23:59:59Z</time>
      </trkpt>
      <trkpt lat="39.8831030" lon="-0.7869110">
        <ele>1438.3000000</ele>
        <time>1989-12-30T23:59:59Z</time>
      </trkpt>
      <trkpt lat="39.8824310" lon="-0.7887460">
        <ele>1442.1000000</ele>
        <time>1989-12-30T23:59:59Z</time>
      </trkpt>
      <trkpt lat="39.8830320" lon="-0.7902560">
        <ele>1454.1000000</ele>
        <time>1989-12-30T23:59:59Z</time>
      </trkpt>
      <trkpt lat="39.8817830" lon="-0.7921980">
        <ele>1475.3000000</ele>
        <time>1989-12-30T23:59:59Z</time>
      </trkpt>
      <trkpt lat="39.8810920" lon="-0.8007870">
        <ele>1459.4000000</ele>
        <time>1989-12-30T23:59:59Z</time>
      </trkpt>
      <trkpt lat="39.8797700" lon="-0.8038940">
        <ele>1460.9000000</ele>
        <time>1989-12-30T23:59:59Z</time>
      </trkpt>
      <trkpt lat="39.8808830" lon="-0.8072340">
        <ele>1486.3000000</ele>
        <time>1989-12-30T23:59:59Z</time>
      </trkpt>
      <trkpt lat="39.8873480" lon="-0.8021910">
        <ele>1533.9000000</ele>
        <time>1989-12-30T23:59:59Z</time>
      </trkpt>
      <trkpt lat="39.8897860" lon="-0.8031570">
        <ele>1542.1000000</ele>
        <time>1989-12-30T23:59:59Z</time>
      </trkpt>
      <trkpt lat="39.8915059" lon="-0.8045350">
        <ele>1554.4023438</ele>
      </trkpt>
      <trkpt lat="39.8924491" lon="-0.8050328">
        <ele>1560.1015625</ele>
      </trkpt>
      <trkpt lat="39.8923143" lon="-0.8061393">
        <ele>1563.7421875</ele>
      </trkpt>
      <trkpt lat="39.8921347" lon="-0.8071905">
        <ele>1571.7890625</ele>
      </trkpt>
      <trkpt lat="39.8926287" lon="-0.8083523">
        <ele>1570.8828125</ele>
      </trkpt>
      <trkpt lat="39.8932575" lon="-0.8085736">
        <ele>1574.4570313</ele>
      </trkpt>
    </trkseg>
  </trk>

</gpx>
